sensor_id;sensor_type;location;lat;lon;timestamp;pressure;altitude;pressure_sealevel;temperature;humidity
63306;BME280;50735;52.060;1.248;2023-03-14T00:01:15;98311.84;;;7.43;62.00
63306;BME280;50735;52.060;1.248;2023-03-14T00:03:48;98310.83;;;7.52;61.91
63306;BME280;50735;52.060;1.248;2023-03-14T00:06:20;98315.80;;;7.16;62.79
63306;BME280;50735;52.060;1.248;2023-03-14T00:08:53;98315.17;;;7.16;63.21
63306;BME280;50735;52.060;1.248;2023-03-14T00:11:25;98309.39;;;7.49;62.22
63306;BME280;50735;52.060;1.248;2023-03-14T00:13:57;98322.87;;;7.44;62.31
63306;BME280;50735;52.060;1.248;2023-03-14T00:16:29;98311.92;;;7.27;62.58
63306;BME280;50735;52.060;1.248;2023-03-14T00:19:01;98303.70;;;7.20;62.87
63306;BME280;50735;52.060;1.248;2023-03-14T00:21:33;98306.61;;;7.26;62.94
63306;BME280;50735;52.060;1.248;2023-03-14T00:24:07;98302.89;;;7.23;62.84
63306;BME280;50735;52.060;1.248;2023-03-14T00:26:39;98300.14;;;7.09;63.89
63306;BME280;50735;52.060;1.248;2023-03-14T00:29:10;98296.98;;;7.45;62.85
63306;BME280;50735;52.060;1.248;2023-03-14T00:31:42;98299.56;;;7.47;62.68
63306;BME280;50735;52.060;1.248;2023-03-14T00:34:14;98300.42;;;7.24;63.38
63306;BME280;50735;52.060;1.248;2023-03-14T00:36:45;98298.18;;;7.17;63.36
63306;BME280;50735;52.060;1.248;2023-03-14T00:39:17;98312.82;;;7.29;63.17
63306;BME280;50735;52.060;1.248;2023-03-14T00:41:49;98302.23;;;7.15;63.32
63306;BME280;50735;52.060;1.248;2023-03-14T00:44:20;98310.52;;;7.11;63.63
63306;BME280;50735;52.060;1.248;2023-03-14T00:46:52;98303.01;;;7.16;63.67
63306;BME280;50735;52.060;1.248;2023-03-14T00:49:24;98312.38;;;7.27;63.24
63306;BME280;50735;52.060;1.248;2023-03-14T00:51:56;98307.71;;;7.38;63.08
63306;BME280;50735;52.060;1.248;2023-03-14T00:54:27;98309.55;;;7.49;63.04
63306;BME280;50735;52.060;1.248;2023-03-14T00:56:59;98312.69;;;7.33;63.49
63306;BME280;50735;52.060;1.248;2023-03-14T00:59:31;98313.30;;;7.28;63.40
63306;BME280;50735;52.060;1.248;2023-03-14T01:02:03;98315.61;;;7.33;63.77
63306;BME280;50735;52.060;1.248;2023-03-14T01:04:35;98313.79;;;7.44;63.89
63306;BME280;50735;52.060;1.248;2023-03-14T01:07:07;98316.22;;;7.34;64.06
63306;BME280;50735;52.060;1.248;2023-03-14T01:09:38;98316.56;;;7.15;64.56
63306;BME280;50735;52.060;1.248;2023-03-14T01:12:11;98316.45;;;7.17;65.16
63306;BME280;50735;52.060;1.248;2023-03-14T01:14:42;98318.37;;;7.17;65.10
63306;BME280;50735;52.060;1.248;2023-03-14T01:17:14;98314.48;;;7.10;65.72
63306;BME280;50735;52.060;1.248;2023-03-14T01:19:45;98316.75;;;6.97;66.41
63306;BME280;50735;52.060;1.248;2023-03-14T01:22:17;98314.14;;;6.93;66.73
63306;BME280;50735;52.060;1.248;2023-03-14T01:24:49;98317.36;;;7.05;66.65
63306;BME280;50735;52.060;1.248;2023-03-14T01:27:21;98310.67;;;7.06;66.95
63306;BME280;50735;52.060;1.248;2023-03-14T01:29:52;98312.03;;;7.37;67.05
63306;BME280;50735;52.060;1.248;2023-03-14T01:32:24;98317.61;;;7.18;66.74
63306;BME280;50735;52.060;1.248;2023-03-14T01:34:56;98323.11;;;7.15;67.21
63306;BME280;50735;52.060;1.248;2023-03-14T01:37:28;98352.72;;;7.15;67.16
63306;BME280;50735;52.060;1.248;2023-03-14T01:40:00;98420.61;;;6.31;65.99
63306;BME280;50735;52.060;1.248;2023-03-14T01:42:32;98428.36;;;6.23;64.59
63306;BME280;50735;52.060;1.248;2023-03-14T01:45:04;98427.49;;;6.04;63.95
63306;BME280;50735;52.060;1.248;2023-03-14T01:47:36;98435.52;;;6.64;63.18
63306;BME280;50735;52.060;1.248;2023-03-14T01:50:10;98440.18;;;6.31;63.15
63306;BME280;50735;52.060;1.248;2023-03-14T01:52:46;98443.56;;;6.52;62.36
63306;BME280;50735;52.060;1.248;2023-03-14T01:55:23;98447.73;;;6.37;62.91
63306;BME280;50735;52.060;1.248;2023-03-14T01:57:59;98452.25;;;6.42;62.39
63306;BME280;50735;52.060;1.248;2023-03-14T02:00:34;98450.48;;;6.44;62.52
63306;BME280;50735;52.060;1.248;2023-03-14T02:03:09;98448.42;;;6.29;62.82
63306;BME280;50735;52.060;1.248;2023-03-14T02:05:44;98448.82;;;6.28;62.57
63306;BME280;50735;52.060;1.248;2023-03-14T02:08:19;98451.49;;;6.47;62.72
63306;BME280;50735;52.060;1.248;2023-03-14T02:10:51;98459.42;;;6.34;62.68
63306;BME280;50735;52.060;1.248;2023-03-14T02:13:23;98468.37;;;6.12;62.06
63306;BME280;50735;52.060;1.248;2023-03-14T02:15:55;98473.60;;;6.04;61.65
63306;BME280;50735;52.060;1.248;2023-03-14T02:18:27;98477.56;;;5.79;62.22
63306;BME280;50735;52.060;1.248;2023-03-14T02:21:01;98478.95;;;5.67;62.29
63306;BME280;50735;52.060;1.248;2023-03-14T02:23:43;98484.39;;;6.00;61.71
63306;BME280;50735;52.060;1.248;2023-03-14T02:26:22;98501.71;;;5.29;62.50
63306;BME280;50735;52.060;1.248;2023-03-14T02:28:56;98505.88;;;5.55;62.52
63306;BME280;50735;52.060;1.248;2023-03-14T02:31:28;98513.54;;;5.56;62.58
63306;BME280;50735;52.060;1.248;2023-03-14T02:34:00;98521.20;;;5.69;62.09
63306;BME280;50735;52.060;1.248;2023-03-14T02:36:32;98529.04;;;5.94;61.76
63306;BME280;50735;52.060;1.248;2023-03-14T02:39:09;98541.84;;;6.05;61.87
63306;BME280;50735;52.060;1.248;2023-03-14T02:41:43;98551.20;;;5.93;61.58
63306;BME280;50735;52.060;1.248;2023-03-14T02:44:15;98556.53;;;5.70;61.84
63306;BME280;50735;52.060;1.248;2023-03-14T02:46:47;98561.39;;;5.95;61.65
63306;BME280;50735;52.060;1.248;2023-03-14T02:49:19;98567.48;;;5.46;62.09
63306;BME280;50735;52.060;1.248;2023-03-14T02:51:50;98567.48;;;5.65;61.94
63306;BME280;50735;52.060;1.248;2023-03-14T02:54:22;98574.09;;;5.64;61.71
63306;BME280;50735;52.060;1.248;2023-03-14T02:56:54;98577.32;;;5.52;61.79
63306;BME280;50735;52.060;1.248;2023-03-14T02:59:26;98582.14;;;5.64;61.67
63306;BME280;50735;52.060;1.248;2023-03-14T03:01:59;98585.26;;;5.59;61.15
63306;BME280;50735;52.060;1.248;2023-03-14T03:04:31;98578.93;;;5.93;61.33
63306;BME280;50735;52.060;1.248;2023-03-14T03:07:03;98584.13;;;5.66;61.24
63306;BME280;50735;52.060;1.248;2023-03-14T03:09:34;98599.36;;;5.88;61.29
63306;BME280;50735;52.060;1.248;2023-03-14T03:12:06;98606.93;;;5.55;61.18
63306;BME280;50735;52.060;1.248;2023-03-14T03:14:38;98606.58;;;5.57;61.36
63306;BME280;50735;52.060;1.248;2023-03-14T03:17:10;98610.69;;;5.85;61.13
63306;BME280;50735;52.060;1.248;2023-03-14T03:19:43;98615.98;;;5.65;60.68
63306;BME280;50735;52.060;1.248;2023-03-14T03:22:14;98623.56;;;5.45;61.14
63306;BME280;50735;52.060;1.248;2023-03-14T03:24:46;98629.12;;;5.40;61.37
63306;BME280;50735;52.060;1.248;2023-03-14T03:27:18;98632.70;;;5.47;61.34
63306;BME280;50735;52.060;1.248;2023-03-14T03:29:50;98641.69;;;5.66;61.19
63306;BME280;50735;52.060;1.248;2023-03-14T03:32:22;98639.64;;;5.81;61.04
63306;BME280;50735;52.060;1.248;2023-03-14T03:34:54;98646.12;;;5.93;60.52
63306;BME280;50735;52.060;1.248;2023-03-14T03:37:26;98653.13;;;5.90;60.67
63306;BME280;50735;52.060;1.248;2023-03-14T03:39:58;98658.60;;;5.82;60.77
63306;BME280;50735;52.060;1.248;2023-03-14T03:42:30;98662.99;;;5.83;60.66
63306;BME280;50735;52.060;1.248;2023-03-14T03:45:03;98673.03;;;5.85;60.45
63306;BME280;50735;52.060;1.248;2023-03-14T03:47:34;98677.75;;;5.59;60.06
63306;BME280;50735;52.060;1.248;2023-03-14T03:50:07;98683.06;;;5.60;59.87
63306;BME280;50735;52.060;1.248;2023-03-14T03:52:39;98690.97;;;5.19;60.34
63306;BME280;50735;52.060;1.248;2023-03-14T03:55:11;98700.48;;;5.03;60.45
63306;BME280;50735;52.060;1.248;2023-03-14T03:57:43;98707.08;;;4.99;59.87
63306;BME280;50735;52.060;1.248;2023-03-14T04:00:15;98714.60;;;4.89;59.35
63306;BME280;50735;52.060;1.248;2023-03-14T04:02:47;98731.85;;;4.93;59.51
63306;BME280;50735;52.060;1.248;2023-03-14T04:05:18;98742.96;;;5.08;59.23
63306;BME280;50735;52.060;1.248;2023-03-14T04:07:50;98746.01;;;4.94;58.66
63306;BME280;50735;52.060;1.248;2023-03-14T04:10:22;98750.19;;;4.79;59.21
63306;BME280;50735;52.060;1.248;2023-03-14T04:12:54;98757.78;;;5.10;58.87
63306;BME280;50735;52.060;1.248;2023-03-14T04:15:26;98763.87;;;4.53;59.06
63306;BME280;50735;52.060;1.248;2023-03-14T04:17:58;98766.59;;;4.76;59.54
63306;BME280;50735;52.060;1.248;2023-03-14T04:20:30;98777.89;;;4.03;60.29
63306;BME280;50735;52.060;1.248;2023-03-14T04:23:01;98789.81;;;4.38;60.33
63306;BME280;50735;52.060;1.248;2023-03-14T04:25:33;98797.33;;;4.82;60.22
63306;BME280;50735;52.060;1.248;2023-03-14T04:28:05;98807.63;;;4.46;59.85
63306;BME280;50735;52.060;1.248;2023-03-14T04:30:37;98815.40;;;4.66;59.74
63306;BME280;50735;52.060;1.248;2023-03-14T04:33:09;98823.22;;;4.55;60.06
63306;BME280;50735;52.060;1.248;2023-03-14T04:35:41;98826.37;;;4.38;60.03
63306;BME280;50735;52.060;1.248;2023-03-14T04:38:13;98838.95;;;4.86;60.08
63306;BME280;50735;52.060;1.248;2023-03-14T04:40:45;98847.22;;;4.57;59.74
63306;BME280;50735;52.060;1.248;2023-03-14T04:43:16;98846.26;;;4.92;59.67
63306;BME280;50735;52.060;1.248;2023-03-14T04:45:48;98847.32;;;4.89;59.74
63306;BME280;50735;52.060;1.248;2023-03-14T04:48:21;98853.35;;;4.85;59.87
63306;BME280;50735;52.060;1.248;2023-03-14T04:50:54;98856.42;;;4.18;60.53
63306;BME280;50735;52.060;1.248;2023-03-14T04:53:26;98864.90;;;4.56;59.89
63306;BME280;50735;52.060;1.248;2023-03-14T04:55:58;98870.63;;;4.43;59.93
63306;BME280;50735;52.060;1.248;2023-03-14T04:58:30;98879.53;;;4.65;59.78
63306;BME280;50735;52.060;1.248;2023-03-14T05:01:02;98886.21;;;3.96;60.55
63306;BME280;50735;52.060;1.248;2023-03-14T05:03:34;98887.11;;;4.21;60.46
63306;BME280;50735;52.060;1.248;2023-03-14T05:06:06;98897.32;;;4.29;60.09
63306;BME280;50735;52.060;1.248;2023-03-14T05:08:38;98898.31;;;4.51;60.04
63306;BME280;50735;52.060;1.248;2023-03-14T05:11:11;98907.69;;;4.22;60.01
63306;BME280;50735;52.060;1.248;2023-03-14T05:13:44;98909.67;;;4.07;59.91
63306;BME280;50735;52.060;1.248;2023-03-14T05:16:16;98917.77;;;4.19;59.54
63306;BME280;50735;52.060;1.248;2023-03-14T05:18:48;98926.55;;;4.44;59.76
63306;BME280;50735;52.060;1.248;2023-03-14T05:21:20;98928.30;;;4.64;59.59
63306;BME280;50735;52.060;1.248;2023-03-14T05:23:52;98928.80;;;4.49;59.52
63306;BME280;50735;52.060;1.248;2023-03-14T05:26:24;98932.58;;;4.70;58.96
63306;BME280;50735;52.060;1.248;2023-03-14T05:28:55;98942.34;;;4.62;59.14
63306;BME280;50735;52.060;1.248;2023-03-14T05:31:27;98948.86;;;4.69;58.89
63306;BME280;50735;52.060;1.248;2023-03-14T05:33:59;98961.57;;;4.20;59.42
63306;BME280;50735;52.060;1.248;2023-03-14T05:36:31;98967.31;;;4.46;59.30
63306;BME280;50735;52.060;1.248;2023-03-14T05:39:03;98971.76;;;4.93;58.99
63306;BME280;50735;52.060;1.248;2023-03-14T05:41:34;98980.88;;;4.51;59.01
63306;BME280;50735;52.060;1.248;2023-03-14T05:44:06;98989.31;;;4.30;59.16
63306;BME280;50735;52.060;1.248;2023-03-14T05:46:38;98990.83;;;4.60;59.07
63306;BME280;50735;52.060;1.248;2023-03-14T05:49:10;98996.10;;;3.92;60.42
63306;BME280;50735;52.060;1.248;2023-03-14T05:51:42;99002.97;;;3.67;61.03
63306;BME280;50735;52.060;1.248;2023-03-14T05:54:13;99008.51;;;4.12;60.39
63306;BME280;50735;52.060;1.248;2023-03-14T05:56:45;99017.90;;;3.56;61.12
63306;BME280;50735;52.060;1.248;2023-03-14T05:59:17;99024.02;;;3.74;61.49
63306;BME280;50735;52.060;1.248;2023-03-14T06:01:49;99024.32;;;4.38;60.71
63306;BME280;50735;52.060;1.248;2023-03-14T06:04:21;99038.72;;;4.17;61.00
63306;BME280;50735;52.060;1.248;2023-03-14T06:06:53;99050.41;;;4.05;61.26
63306;BME280;50735;52.060;1.248;2023-03-14T06:09:25;99055.67;;;4.09;61.52
63306;BME280;50735;52.060;1.248;2023-03-14T06:11:57;99061.16;;;4.28;62.10
63306;BME280;50735;52.060;1.248;2023-03-14T06:14:29;99063.42;;;4.21;61.46
63306;BME280;50735;52.060;1.248;2023-03-14T06:17:00;99080.88;;;4.39;61.85
63306;BME280;50735;52.060;1.248;2023-03-14T06:19:32;99086.56;;;4.29;61.75
63306;BME280;50735;52.060;1.248;2023-03-14T06:22:04;99097.09;;;4.30;62.22
63306;BME280;50735;52.060;1.248;2023-03-14T06:24:36;99104.64;;;4.26;62.54
63306;BME280;50735;52.060;1.248;2023-03-14T06:27:08;99109.06;;;3.91;63.65
63306;BME280;50735;52.060;1.248;2023-03-14T06:29:40;99117.56;;;3.67;63.55
63306;BME280;50735;52.060;1.248;2023-03-14T06:32:12;99122.88;;;3.96;63.66
63306;BME280;50735;52.060;1.248;2023-03-14T06:34:44;99127.30;;;3.93;63.84
63306;BME280;50735;52.060;1.248;2023-03-14T06:37:16;99141.50;;;3.76;64.04
63306;BME280;50735;52.060;1.248;2023-03-14T06:39:47;99150.29;;;4.17;63.39
63306;BME280;50735;52.060;1.248;2023-03-14T06:42:19;99164.99;;;3.67;63.91
63306;BME280;50735;52.060;1.248;2023-03-14T06:44:51;99172.85;;;4.10;63.71
63306;BME280;50735;52.060;1.248;2023-03-14T06:47:23;99191.01;;;4.36;63.38
63306;BME280;50735;52.060;1.248;2023-03-14T06:49:55;99203.50;;;4.54;62.91
63306;BME280;50735;52.060;1.248;2023-03-14T06:52:27;99205.45;;;4.60;62.40
63306;BME280;50735;52.060;1.248;2023-03-14T06:54:59;99216.82;;;4.70;62.22
63306;BME280;50735;52.060;1.248;2023-03-14T06:57:31;99226.34;;;4.63;62.49
63306;BME280;50735;52.060;1.248;2023-03-14T07:00:04;99235.62;;;4.51;62.39
63306;BME280;50735;52.060;1.248;2023-03-14T07:02:37;99247.35;;;4.17;62.52
63306;BME280;50735;52.060;1.248;2023-03-14T07:05:09;99258.99;;;4.31;62.40
63306;BME280;50735;52.060;1.248;2023-03-14T07:07:40;99265.66;;;4.10;61.83
63306;BME280;50735;52.060;1.248;2023-03-14T07:10:12;99276.77;;;4.59;60.99
63306;BME280;50735;52.060;1.248;2023-03-14T07:12:44;99286.13;;;4.91;60.57
63306;BME280;50735;52.060;1.248;2023-03-14T07:15:16;99297.33;;;5.04;59.76
63306;BME280;50735;52.060;1.248;2023-03-14T07:17:48;99309.74;;;4.79;59.68
63306;BME280;50735;52.060;1.248;2023-03-14T07:20:20;99316.29;;;5.09;59.28
63306;BME280;50735;52.060;1.248;2023-03-14T07:22:52;99330.96;;;4.95;59.44
63306;BME280;50735;52.060;1.248;2023-03-14T07:25:24;99341.20;;;4.78;59.13
63306;BME280;50735;52.060;1.248;2023-03-14T07:27:56;99353.54;;;4.50;59.06
63306;BME280;50735;52.060;1.248;2023-03-14T07:30:28;99373.78;;;4.34;58.80
63306;BME280;50735;52.060;1.248;2023-03-14T07:32:59;99387.12;;;4.05;59.25
63306;BME280;50735;52.060;1.248;2023-03-14T07:35:31;99394.07;;;3.77;59.24
63306;BME280;50735;52.060;1.248;2023-03-14T07:38:03;99400.66;;;3.49;59.84
63306;BME280;50735;52.060;1.248;2023-03-14T07:40:35;99413.50;;;3.90;59.89
63306;BME280;50735;52.060;1.248;2023-03-14T07:43:07;99423.64;;;4.18;59.00
63306;BME280;50735;52.060;1.248;2023-03-14T07:45:39;99438.13;;;4.20;58.88
63306;BME280;50735;52.060;1.248;2023-03-14T07:48:11;99448.35;;;4.04;59.33
63306;BME280;50735;52.060;1.248;2023-03-14T07:50:43;99455.99;;;3.90;59.21
63306;BME280;50735;52.060;1.248;2023-03-14T07:53:15;99468.14;;;4.31;58.53
63306;BME280;50735;52.060;1.248;2023-03-14T07:55:47;99477.74;;;4.48;58.42
63306;BME280;50735;52.060;1.248;2023-03-14T07:58:19;99486.46;;;4.57;58.41
63306;BME280;50735;52.060;1.248;2023-03-14T08:00:51;99498.19;;;4.63;58.04
63306;BME280;50735;52.060;1.248;2023-03-14T08:03:23;99507.33;;;4.84;57.47
63306;BME280;50735;52.060;1.248;2023-03-14T08:05:55;99519.30;;;5.22;57.51
63306;BME280;50735;52.060;1.248;2023-03-14T08:08:27;99523.22;;;4.70;57.67
63306;BME280;50735;52.060;1.248;2023-03-14T08:11:03;99533.45;;;4.20;58.18
63306;BME280;50735;52.060;1.248;2023-03-14T08:13:35;99541.94;;;4.39;57.54
63306;BME280;50735;52.060;1.248;2023-03-14T08:16:07;99554.22;;;4.35;58.51
63306;BME280;50735;52.060;1.248;2023-03-14T08:18:39;99558.42;;;4.42;58.04
63306;BME280;50735;52.060;1.248;2023-03-14T08:21:11;99579.47;;;4.01;59.55
63306;BME280;50735;52.060;1.248;2023-03-14T08:23:43;99592.94;;;4.00;59.07
63306;BME280;50735;52.060;1.248;2023-03-14T08:26:15;99600.89;;;3.86;60.09
63306;BME280;50735;52.060;1.248;2023-03-14T08:28:47;99615.80;;;3.99;59.52
63306;BME280;50735;52.060;1.248;2023-03-14T08:31:19;99630.84;;;3.88;58.63
63306;BME280;50735;52.060;1.248;2023-03-14T08:33:51;99647.36;;;3.94;58.78
63306;BME280;50735;52.060;1.248;2023-03-14T08:36:23;99654.98;;;4.12;58.19
63306;BME280;50735;52.060;1.248;2023-03-14T08:38:55;99656.11;;;3.99;58.48
63306;BME280;50735;52.060;1.248;2023-03-14T08:41:26;99678.77;;;3.85;58.58
63306;BME280;50735;52.060;1.248;2023-03-14T08:43:58;99691.23;;;4.09;58.95
63306;BME280;50735;52.060;1.248;2023-03-14T08:46:30;99695.71;;;4.14;58.28
63306;BME280;50735;52.060;1.248;2023-03-14T08:49:03;99709.45;;;4.33;58.84
63306;BME280;50735;52.060;1.248;2023-03-14T08:51:35;99718.36;;;4.53;58.43
63306;BME280;50735;52.060;1.248;2023-03-14T08:54:09;99732.03;;;4.03;58.39
63306;BME280;50735;52.060;1.248;2023-03-14T08:56:42;99744.69;;;4.51;58.62
63306;BME280;50735;52.060;1.248;2023-03-14T08:59:14;99750.70;;;4.77;58.16
63306;BME280;50735;52.060;1.248;2023-03-14T09:01:46;99756.44;;;4.60;57.95
63306;BME280;50735;52.060;1.248;2023-03-14T09:04:18;99765.58;;;4.41;58.17
63306;BME280;50735;52.060;1.248;2023-03-14T09:06:50;99772.25;;;4.67;58.30
63306;BME280;50735;52.060;1.248;2023-03-14T09:09:22;99780.53;;;4.93;57.55
63306;BME280;50735;52.060;1.248;2023-03-14T09:11:54;99787.19;;;4.84;56.89
63306;BME280;50735;52.060;1.248;2023-03-14T09:14:25;99805.22;;;5.01;56.87
63306;BME280;50735;52.060;1.248;2023-03-14T09:16:58;99806.44;;;4.98;57.47
63306;BME280;50735;52.060;1.248;2023-03-14T09:19:30;99828.17;;;4.93;56.92
63306;BME280;50735;52.060;1.248;2023-03-14T09:22:02;99839.71;;;4.90;57.03
63306;BME280;50735;52.060;1.248;2023-03-14T09:24:33;99848.94;;;4.86;56.12
63306;BME280;50735;52.060;1.248;2023-03-14T09:27:05;99859.54;;;5.11;57.11
63306;BME280;50735;52.060;1.248;2023-03-14T09:29:37;99867.39;;;4.88;56.28
63306;BME280;50735;52.060;1.248;2023-03-14T09:32:09;99877.47;;;4.81;57.29
63306;BME280;50735;52.060;1.248;2023-03-14T09:34:41;99888.02;;;4.56;57.02
63306;BME280;50735;52.060;1.248;2023-03-14T09:37:13;99897.35;;;3.63;56.48
63306;BME280;50735;52.060;1.248;2023-03-14T09:39:44;99902.14;;;3.39;56.86
63306;BME280;50735;52.060;1.248;2023-03-14T09:42:19;99909.84;;;3.67;57.15
63306;BME280;50735;52.060;1.248;2023-03-14T09:44:56;99919.31;;;3.54;57.88
63306;BME280;50735;52.060;1.248;2023-03-14T09:47:28;99928.18;;;3.77;57.50
63306;BME280;50735;52.060;1.248;2023-03-14T09:50:01;99936.61;;;4.00;56.71
63306;BME280;50735;52.060;1.248;2023-03-14T09:52:36;99943.41;;;3.70;58.27
63306;BME280;50735;52.060;1.248;2023-03-14T09:55:12;99953.14;;;3.69;58.07
63306;BME280;50735;52.060;1.248;2023-03-14T09:57:46;99957.54;;;3.69;58.01
63306;BME280;50735;52.060;1.248;2023-03-14T10:00:21;99968.98;;;3.92;57.80
63306;BME280;50735;52.060;1.248;2023-03-14T10:02:55;99973.95;;;3.78;57.62
63306;BME280;50735;52.060;1.248;2023-03-14T10:05:28;99979.14;;;4.21;57.63
63306;BME280;50735;52.060;1.248;2023-03-14T10:07:59;99989.15;;;4.51;56.75
63306;BME280;50735;52.060;1.248;2023-03-14T10:10:32;99999.21;;;4.61;56.39
63306;BME280;50735;52.060;1.248;2023-03-14T10:13:14;100003.23;;;4.59;56.71
63306;BME280;50735;52.060;1.248;2023-03-14T10:15:50;100010.86;;;5.03;56.18
63306;BME280;50735;52.060;1.248;2023-03-14T10:18:23;100010.48;;;4.98;55.84
63306;BME280;50735;52.060;1.248;2023-03-14T10:21:05;100020.27;;;5.07;55.96
63306;BME280;50735;52.060;1.248;2023-03-14T10:23:38;100024.33;;;5.38;55.25
63306;BME280;50735;52.060;1.248;2023-03-14T10:26:13;100033.66;;;5.18;54.98
63306;BME280;50735;52.060;1.248;2023-03-14T10:28:47;100037.74;;;5.28;55.11
63306;BME280;50735;52.060;1.248;2023-03-14T10:31:24;100050.22;;;5.28;54.69
63306;BME280;50735;52.060;1.248;2023-03-14T10:33:59;100057.45;;;5.37;54.00
63306;BME280;50735;52.060;1.248;2023-03-14T10:36:33;100060.11;;;5.63;54.15
63306;BME280;50735;52.060;1.248;2023-03-14T10:39:24;100063.16;;;5.80;54.02
63306;BME280;50735;52.060;1.248;2023-03-14T10:42:04;100068.06;;;5.84;54.06
63306;BME280;50735;52.060;1.248;2023-03-14T10:44:37;100074.17;;;5.90;54.49
63306;BME280;50735;52.060;1.248;2023-03-14T10:47:17;100080.43;;;5.99;54.39
63306;BME280;50735;52.060;1.248;2023-03-14T10:49:50;100087.47;;;6.71;54.10
63306;BME280;50735;52.060;1.248;2023-03-14T10:52:25;100097.59;;;7.14;53.06
63306;BME280;50735;52.060;1.248;2023-03-14T10:54:58;100101.68;;;7.79;52.70
63306;BME280;50735;52.060;1.248;2023-03-14T10:57:30;100100.82;;;8.25;51.34
63306;BME280;50735;52.060;1.248;2023-03-14T11:00:03;100105.98;;;8.33;50.27
63306;BME280;50735;52.060;1.248;2023-03-14T11:02:48;100110.77;;;8.72;50.13
63306;BME280;50735;52.060;1.248;2023-03-14T11:05:28;100118.94;;;9.17;50.11
63306;BME280;50735;52.060;1.248;2023-03-14T11:08:06;100125.55;;;8.93;47.98
63306;BME280;50735;52.060;1.248;2023-03-14T11:10:40;100132.44;;;8.51;45.57
63306;BME280;50735;52.060;1.248;2023-03-14T11:13:17;100136.34;;;8.61;46.78
63306;BME280;50735;52.060;1.248;2023-03-14T11:15:59;100145.38;;;8.84;47.10
63306;BME280;50735;52.060;1.248;2023-03-14T11:18:58;100154.95;;;8.10;46.53
63306;BME280;50735;52.060;1.248;2023-03-14T11:21:36;100164.52;;;7.91;47.43
63306;BME280;50735;52.060;1.248;2023-03-14T11:24:22;100167.50;;;7.79;47.74
63306;BME280;50735;52.060;1.248;2023-03-14T11:27:00;100175.68;;;7.72;49.51
63306;BME280;50735;52.060;1.248;2023-03-14T11:29:39;100181.80;;;7.88;48.99
63306;BME280;50735;52.060;1.248;2023-03-14T11:32:13;100182.23;;;8.22;49.00
63306;BME280;50735;52.060;1.248;2023-03-14T11:34:50;100186.14;;;9.10;48.63
63306;BME280;50735;52.060;1.248;2023-03-14T11:37:27;100200.63;;;9.52;47.32
63306;BME280;50735;52.060;1.248;2023-03-14T11:40:06;100208.53;;;8.75;46.85
63306;BME280;50735;52.060;1.248;2023-03-14T11:42:42;100211.86;;;9.25;44.79
63306;BME280;50735;52.060;1.248;2023-03-14T11:45:17;100215.66;;;9.57;44.92
63306;BME280;50735;52.060;1.248;2023-03-14T11:47:53;100216.10;;;9.45;43.03
63306;BME280;50735;52.060;1.248;2023-03-14T11:50:29;100223.85;;;9.42;45.12
63306;BME280;50735;52.060;1.248;2023-03-14T11:53:04;100225.12;;;9.42;44.78
63306;BME280;50735;52.060;1.248;2023-03-14T11:55:42;100224.78;;;9.48;44.37
63306;BME280;50735;52.060;1.248;2023-03-14T11:58:17;100226.31;;;8.78;43.94
63306;BME280;50735;52.060;1.248;2023-03-14T12:00:51;100231.38;;;9.02;44.48
63306;BME280;50735;52.060;1.248;2023-03-14T12:03:29;100238.71;;;9.73;45.30
63306;BME280;50735;52.060;1.248;2023-03-14T12:06:10;100237.56;;;10.17;44.43
63306;BME280;50735;52.060;1.248;2023-03-14T12:08:49;100238.17;;;10.32;42.57
63306;BME280;50735;52.060;1.248;2023-03-14T12:11:31;100245.50;;;10.48;42.40
63306;BME280;50735;52.060;1.248;2023-03-14T12:14:18;100248.07;;;11.36;44.44
63306;BME280;50735;52.060;1.248;2023-03-14T12:16:54;100252.21;;;11.91;41.68
63306;BME280;50735;52.060;1.248;2023-03-14T12:19:30;100255.18;;;10.98;38.02
63306;BME280;50735;52.060;1.248;2023-03-14T12:22:36;100259.56;;;11.94;40.07
63306;BME280;50735;52.060;1.248;2023-03-14T12:25:16;100268.08;;;11.98;37.86
63306;BME280;50735;52.060;1.248;2023-03-14T12:28:04;100268.78;;;11.95;37.65
63306;BME280;50735;52.060;1.248;2023-03-14T12:30:38;100271.95;;;12.08;38.49
63306;BME280;50735;52.060;1.248;2023-03-14T12:33:14;100277.41;;;11.18;36.86
63306;BME280;50735;52.060;1.248;2023-03-14T12:35:52;100284.16;;;10.34;35.98
63306;BME280;50735;52.060;1.248;2023-03-14T12:38:38;100287.48;;;10.17;36.03
63306;BME280;50735;52.060;1.248;2023-03-14T12:41:17;100293.18;;;9.79;36.96
63306;BME280;50735;52.060;1.248;2023-03-14T12:43:51;100295.21;;;10.15;38.50
63306;BME280;50735;52.060;1.248;2023-03-14T12:46:25;100295.89;;;10.38;37.70
63306;BME280;50735;52.060;1.248;2023-03-14T12:49:05;100297.05;;;10.71;36.17
63306;BME280;50735;52.060;1.248;2023-03-14T12:51:41;100292.53;;;11.32;35.57
63306;BME280;50735;52.060;1.248;2023-03-14T12:54:24;100294.83;;;11.40;35.14
63306;BME280;50735;52.060;1.248;2023-03-14T12:57:07;100298.19;;;11.63;33.83
63306;BME280;50735;52.060;1.248;2023-03-14T12:59:47;100310.82;;;12.18;33.07
63306;BME280;50735;52.060;1.248;2023-03-14T13:02:24;100322.12;;;12.32;31.02
63306;BME280;50735;52.060;1.248;2023-03-14T13:05:03;100329.27;;;12.24;31.59
63306;BME280;50735;52.060;1.248;2023-03-14T13:08:04;100326.89;;;12.81;32.50
63306;BME280;50735;52.060;1.248;2023-03-14T13:10:42;100331.35;;;12.61;31.79
63306;BME280;50735;52.060;1.248;2023-03-14T13:13:20;100324.77;;;12.49;31.03
63306;BME280;50735;52.060;1.248;2023-03-14T13:15:55;100327.34;;;12.09;30.96
63306;BME280;50735;52.060;1.248;2023-03-14T13:18:33;100336.56;;;11.91;31.35
63306;BME280;50735;52.060;1.248;2023-03-14T13:21:11;100335.38;;;11.61;31.00
63306;BME280;50735;52.060;1.248;2023-03-14T13:23:56;100343.94;;;11.23;33.39
63306;BME280;50735;52.060;1.248;2023-03-14T13:26:33;100348.04;;;11.64;32.92
63306;BME280;50735;52.060;1.248;2023-03-14T13:29:15;100351.11;;;11.51;31.70
63306;BME280;50735;52.060;1.248;2023-03-14T13:31:50;100347.97;;;11.43;31.64
63306;BME280;50735;52.060;1.248;2023-03-14T13:34:25;100353.11;;;11.83;31.25
63306;BME280;50735;52.060;1.248;2023-03-14T13:36:57;100354.09;;;12.33;31.01
63306;BME280;50735;52.060;1.248;2023-03-14T13:39:29;100355.08;;;12.22;31.01
63306;BME280;50735;52.060;1.248;2023-03-14T13:42:01;100361.75;;;12.65;29.72